createdAt,value
2018-04-12T14:30:27.702Z,19.30
2018-04-12T14:32:56.105Z,19.20
2018-04-12T14:35:24.322Z,19.20
2018-04-12T14:37:52.991Z,19.20
2018-04-12T14:40:25.884Z,19.20
2018-04-12T14:45:38.718Z,19.10
2018-04-12T14:48:07.421Z,19.10
2018-04-12T14:50:39.115Z,19.10
2018-04-12T14:53:09.767Z,19.00
2018-04-12T14:55:40.984Z,19.10
2018-04-12T14:58:09.425Z,19.30
2018-04-12T15:00:38.886Z,19.50
2018-04-12T15:03:09.224Z,19.50
2018-04-12T15:05:41.149Z,19.50
2018-04-12T15:08:18.083Z,19.50
2018-04-12T15:10:49.645Z,19.40
2018-04-12T15:13:27.811Z,19.40
2018-04-12T15:16:00.496Z,19.40
2018-04-12T15:18:38.992Z,19.50
2018-04-12T15:21:10.161Z,19.60
2018-04-12T15:23:48.833Z,19.70
2018-04-12T15:29:47.480Z,19.60
2018-04-12T15:32:33.055Z,18.40
2018-04-12T15:35:03.287Z,19.50
2018-04-12T15:37:35.353Z,19.50
2018-04-12T15:40:10.375Z,19.60
2018-04-12T15:42:48.576Z,19.60
2018-04-12T15:45:40.035Z,19.50
2018-04-12T15:51:26.902Z,19.40
2018-04-12T15:57:13.635Z,19.40
2018-04-12T16:46:12.405Z,18.90
2018-04-12T16:48:44.866Z,18.90
2018-04-12T17:00:21.937Z,18.90
2018-04-12T17:06:10.886Z,18.80
2018-04-12T17:14:28.774Z,18.60
2018-04-12T17:23:41.980Z,18.50
2018-04-12T17:26:13.421Z,18.40
2018-04-12T17:28:41.861Z,18.40
2018-04-12T17:31:10.883Z,18.40
2018-04-12T17:33:39.012Z,18.30
2018-04-12T17:36:07.172Z,18.30
2018-04-12T17:38:37.121Z,18.20
2018-04-12T17:41:05.250Z,18.20
2018-04-12T17:43:34.406Z,18.10
2018-04-12T17:46:03.095Z,18.10
2018-04-12T17:48:32.569Z,18.00
2018-04-12T17:51:00.741Z,18.00
2018-04-12T17:53:33.256Z,17.90
2018-04-12T17:56:01.908Z,17.90
2018-04-12T17:58:30.244Z,17.90
2018-04-12T18:01:02.286Z,17.90
2018-04-12T18:03:31.718Z,17.90
2018-04-12T18:06:01.330Z,17.80
2018-04-12T18:08:29.506Z,17.70
2018-04-12T18:10:57.630Z,17.70
2018-04-12T18:13:25.758Z,17.60
2018-04-12T18:15:53.863Z,17.50
2018-04-12T18:18:23.387Z,17.50
2018-04-12T18:20:51.485Z,17.40
2018-04-12T18:23:20.370Z,17.40
2018-04-12T18:25:49.218Z,17.30
2018-04-12T18:28:17.301Z,17.20
2018-04-12T18:30:45.448Z,17.20
2018-04-12T18:33:13.568Z,17.20
2018-04-12T18:35:41.704Z,17.10
2018-04-12T18:38:09.805Z,17.00
2018-04-12T18:40:37.889Z,17.00
2018-04-12T18:43:06.054Z,16.90
2018-04-12T18:45:34.354Z,16.80
2018-04-12T18:48:03.235Z,16.80
2018-04-12T18:50:32.102Z,16.70
2018-04-12T18:53:00.182Z,16.60
2018-04-12T18:55:28.519Z,16.50
2018-04-12T18:57:56.749Z,16.60
2018-04-12T19:00:25.613Z,16.50
2018-04-12T19:02:53.713Z,16.50
2018-04-12T19:05:22.570Z,16.50
2018-04-12T19:07:51.740Z,16.30
2018-04-12T19:10:20.523Z,16.40
2018-04-12T19:12:48.657Z,16.30
2018-04-12T19:15:16.741Z,16.20
2018-04-12T19:17:45.605Z,16.10
2018-04-12T19:20:13.976Z,16.10
2018-04-12T19:22:42.020Z,16.10
2018-04-12T19:25:12.249Z,16.00
2018-04-12T19:27:40.334Z,15.90
2018-04-12T19:30:08.444Z,15.90
2018-04-12T19:32:36.608Z,15.80
2018-04-12T19:35:04.764Z,15.80
2018-04-12T19:37:32.861Z,15.80
2018-04-12T19:40:01.747Z,15.70
2018-04-12T19:42:29.879Z,15.70
2018-04-12T19:44:58.772Z,15.70
2018-04-12T19:47:26.852Z,15.70
2018-04-12T19:49:54.959Z,15.60
2018-04-12T19:52:23.061Z,15.60
2018-04-12T19:54:51.163Z,15.60
2018-04-12T19:57:19.262Z,15.50
2018-04-12T19:59:47.394Z,15.50
2018-04-12T20:02:16.268Z,15.50
2018-04-12T20:04:44.361Z,15.30
2018-04-12T20:07:12.467Z,15.30
2018-04-12T20:09:40.556Z,15.30
2018-04-12T20:12:08.871Z,15.10
2018-04-12T20:14:37.017Z,15.20
2018-04-12T20:17:05.942Z,15.10
2018-04-12T20:19:34.051Z,15.00
2018-04-12T20:22:03.044Z,14.90
2018-04-12T20:24:31.192Z,14.70
2018-04-12T20:26:59.284Z,14.90
2018-04-12T20:29:28.036Z,14.80
2018-04-12T20:31:57.132Z,14.80
2018-04-12T20:34:25.893Z,14.70
2018-04-12T20:36:54.610Z,14.70
2018-04-12T20:39:23.502Z,14.60
2018-04-12T20:41:54.260Z,14.60
2018-04-12T20:44:23.639Z,14.50
2018-04-12T20:46:52.721Z,14.40
2018-04-12T20:49:23.230Z,14.20
2018-04-12T20:51:52.181Z,14.30
2018-04-12T20:56:56.345Z,14.00
2018-04-12T20:59:25.089Z,14.10
2018-04-12T21:01:53.671Z,13.90
2018-04-12T21:04:23.318Z,14.00
2018-04-12T21:06:55.484Z,13.80
2018-04-12T21:09:23.642Z,13.90
2018-04-12T21:11:51.716Z,13.70
2018-04-12T21:14:19.876Z,13.50
2018-04-12T21:16:49.050Z,13.30
2018-04-12T21:19:17.133Z,13.40
2018-04-12T21:21:47.335Z,13.30
2018-04-12T21:24:15.430Z,13.10
2018-04-12T21:26:43.538Z,13.20
2018-04-12T21:29:11.636Z,13.20
2018-04-12T21:31:40.501Z,13.30
2018-04-12T21:34:08.597Z,13.30
2018-04-12T21:36:36.683Z,13.10
2018-04-12T21:39:04.797Z,13.00
2018-04-12T21:41:32.908Z,12.90
2018-04-12T21:44:01.042Z,12.50
2018-04-12T21:46:29.121Z,12.60
2018-04-12T21:48:57.220Z,12.50
2018-04-12T21:51:25.388Z,12.40
2018-04-12T21:53:54.248Z,12.40
2018-04-12T21:56:23.278Z,12.20
2018-04-12T21:58:52.245Z,12.30
2018-04-12T22:01:21.133Z,12.20
2018-04-12T22:03:49.253Z,12.10
2018-04-12T22:06:18.109Z,12.20
2018-04-12T22:08:46.233Z,12.30
2018-04-12T22:11:14.341Z,12.20
2018-04-12T22:13:42.434Z,12.20
2018-04-12T22:16:10.530Z,12.10
2018-04-12T22:18:38.678Z,12.10
2018-04-12T22:21:06.785Z,12.30
2018-04-12T22:23:35.660Z,12.30
2018-04-12T22:26:03.820Z,12.40
2018-04-12T22:28:31.902Z,12.00
2018-04-12T22:31:02.110Z,11.80
2018-04-12T22:33:30.461Z,11.50
2018-04-12T22:35:58.565Z,11.10
2018-04-12T22:38:28.013Z,11.00
2018-04-12T22:40:56.241Z,11.10
2018-04-12T22:43:24.337Z,11.40
2018-04-12T22:45:53.229Z,11.60
2018-04-12T22:48:21.329Z,11.40
2018-04-12T22:50:49.463Z,11.60
2018-04-12T22:53:17.592Z,11.40
2018-04-12T22:55:45.764Z,11.60
2018-04-12T22:58:13.866Z,11.40
2018-04-12T23:00:42.753Z,11.30
2018-04-12T23:03:10.842Z,11.40
2018-04-12T23:05:38.929Z,11.20
2018-04-12T23:08:07.028Z,11.20
2018-04-12T23:10:35.186Z,11.30
2018-04-12T23:13:03.378Z,11.00
2018-04-12T23:15:31.462Z,10.80
2018-04-12T23:18:00.574Z,10.70
2018-04-12T23:20:28.763Z,10.80
2018-04-12T23:22:56.885Z,10.80
2018-04-12T23:25:24.985Z,10.70
2018-04-12T23:27:53.106Z,10.70
2018-04-12T23:30:21.206Z,10.70
2018-04-12T23:32:49.315Z,10.60
2018-04-12T23:35:17.438Z,10.20
2018-04-12T23:37:45.514Z,10.30
2018-04-12T23:40:13.590Z,10.30
2018-04-12T23:42:41.685Z,10.10
2018-04-12T23:45:10.780Z,10.40
2018-04-12T23:47:39.137Z,10.60
2018-04-12T23:50:07.598Z,10.80
2018-04-12T23:52:36.470Z,10.80
2018-04-12T23:55:04.608Z,10.60
2018-04-12T23:57:32.870Z,10.50
